createdAt,value
2023-08-28T00:01:30.166Z,78.16
2023-08-28T00:04:02.211Z,78.06
2023-08-28T00:06:34.095Z,78.76
2023-08-28T00:09:06.866Z,78.84
2023-08-28T00:11:38.972Z,78.97
2023-08-28T00:14:11.141Z,79.07
2023-08-28T00:16:43.072Z,79.08
2023-08-28T00:19:15.231Z,79.60
2023-08-28T00:21:47.260Z,79.73
2023-08-28T00:24:19.148Z,80.09
2023-08-28T00:26:51.349Z,80.22
2023-08-28T00:29:23.289Z,81.23
2023-08-28T00:31:55.612Z,80.43
2023-08-28T00:34:28.319Z,79.94
2023-08-28T00:37:00.380Z,79.73
2023-08-28T00:39:32.413Z,78.73
2023-08-28T00:42:04.410Z,79.37
2023-08-28T00:44:36.676Z,79.65
2023-08-28T00:47:11.917Z,81.02
2023-08-28T00:49:44.935Z,81.40
2023-08-28T00:52:17.166Z,81.42
2023-08-28T00:54:49.076Z,81.76
2023-08-28T00:57:22.244Z,83.66
2023-08-28T00:59:54.254Z,85.03
2023-08-28T01:02:26.202Z,86.06
2023-08-28T01:04:59.950Z,86.40
2023-08-28T01:07:36.163Z,86.06
2023-08-28T01:10:12.449Z,86.63
2023-08-28T01:12:49.232Z,86.29
2023-08-28T01:15:22.204Z,86.77
2023-08-28T01:17:56.240Z,86.51
2023-08-28T01:20:29.751Z,87.37
2023-08-28T01:23:04.640Z,87.32
2023-08-28T01:25:37.472Z,87.66
2023-08-28T01:28:09.524Z,89.36
2023-08-28T01:30:41.884Z,91.73
2023-08-28T01:33:14.211Z,93.10
2023-08-28T01:35:46.672Z,93.40
2023-08-28T01:38:25.735Z,94.22
2023-08-28T01:41:00.198Z,94.49
2023-08-28T01:43:33.705Z,94.44
2023-08-28T01:46:06.285Z,94.91
2023-08-28T01:48:43.793Z,95.06
2023-08-28T01:51:15.736Z,95.17
2023-08-28T01:53:47.637Z,95.90
2023-08-28T01:56:21.921Z,95.55
2023-08-28T01:58:55.408Z,95.73
2023-08-28T02:01:28.155Z,95.94
2023-08-28T02:04:01.766Z,95.34
2023-08-28T02:06:33.948Z,95.52
2023-08-28T02:09:06.425Z,96.06
2023-08-28T02:11:38.555Z,95.87
2023-08-28T02:14:11.228Z,95.47
2023-08-28T02:16:43.326Z,95.25
2023-08-28T02:19:15.541Z,95.28
2023-08-28T02:21:47.599Z,95.32
2023-08-28T02:24:19.767Z,95.69
2023-08-28T02:26:52.129Z,95.24
2023-08-28T02:29:24.593Z,95.34
2023-08-28T02:31:56.482Z,95.27
2023-08-28T02:34:29.344Z,94.46
2023-08-28T02:37:01.270Z,94.97
2023-08-28T02:39:34.332Z,94.53
2023-08-28T02:42:06.957Z,95.11
2023-08-28T02:44:39.149Z,96.18
2023-08-28T02:47:11.872Z,96.86
2023-08-28T02:49:44.058Z,96.21
2023-08-28T02:52:16.128Z,95.68
2023-08-28T02:54:48.834Z,95.36
2023-08-28T02:57:20.813Z,96.02
2023-08-28T02:59:52.749Z,96.06
2023-08-28T03:02:24.749Z,95.64
2023-08-28T03:04:57.074Z,95.30
2023-08-28T03:07:29.112Z,95.03
2023-08-28T03:10:01.191Z,95.07
2023-08-28T03:12:33.208Z,95.05
2023-08-28T03:15:05.695Z,95.12
2023-08-28T03:17:37.987Z,95.14
2023-08-28T03:20:11.756Z,95.08
2023-08-28T03:22:44.001Z,95.66
2023-08-28T03:25:16.342Z,95.55
2023-08-28T03:27:48.557Z,95.23
2023-08-28T03:30:20.728Z,95.13
2023-08-28T03:32:52.618Z,94.68
2023-08-28T03:35:24.981Z,94.89
2023-08-28T03:37:56.906Z,95.11
2023-08-28T03:40:29.033Z,96.20
2023-08-28T03:43:01.587Z,96.16
2023-08-28T03:45:34.634Z,95.80
2023-08-28T03:48:07.920Z,95.42
2023-08-28T03:50:40.808Z,95.37
2023-08-28T03:53:12.856Z,94.28
2023-08-28T03:55:44.828Z,93.62
2023-08-28T03:58:17.033Z,93.46
2023-08-28T04:00:50.229Z,93.41
2023-08-28T04:03:22.862Z,93.66
2023-08-28T04:05:55.586Z,93.33
2023-08-28T04:08:28.567Z,93.25
2023-08-28T04:11:02.360Z,93.42
2023-08-28T04:13:34.251Z,94.25
2023-08-28T04:16:07.366Z,95.16
2023-08-28T04:18:39.304Z,94.70
2023-08-28T04:21:11.371Z,93.42
2023-08-28T04:23:43.366Z,93.23
2023-08-28T04:26:15.295Z,93.02
2023-08-28T04:28:47.286Z,93.23
2023-08-28T04:31:20.565Z,93.23
2023-08-28T04:33:52.646Z,93.77
2023-08-28T04:36:24.666Z,94.06
2023-08-28T04:38:56.985Z,93.93
2023-08-28T04:41:28.958Z,93.57
2023-08-28T04:44:01.095Z,93.27
2023-08-28T04:46:34.047Z,92.79
2023-08-28T04:49:06.747Z,93.24
2023-08-28T04:51:38.682Z,93.61
2023-08-28T04:54:10.867Z,93.72
2023-08-28T04:56:43.057Z,92.73
2023-08-28T04:59:15.097Z,91.54
2023-08-28T05:01:46.989Z,90.60
2023-08-28T05:04:19.062Z,90.25
2023-08-28T05:06:51.093Z,89.83
2023-08-28T05:09:23.148Z,88.77
2023-08-28T05:11:55.228Z,88.00
2023-08-28T05:14:27.774Z,87.19
2023-08-28T05:16:59.844Z,85.87
2023-08-28T05:19:31.973Z,84.87
2023-08-28T05:22:04.956Z,85.06
2023-08-28T05:24:37.215Z,83.21
2023-08-28T05:27:10.550Z,85.16
2023-08-28T05:29:42.704Z,85.56
2023-08-28T05:32:15.583Z,84.91
2023-08-28T05:34:49.222Z,84.64
2023-08-28T05:37:28.925Z,84.82
2023-08-28T05:40:01.103Z,84.24
2023-08-28T05:42:33.671Z,84.05
2023-08-28T05:45:06.341Z,84.01
2023-08-28T05:47:39.979Z,83.17
2023-08-28T05:50:13.854Z,82.22
2023-08-28T05:52:45.953Z,82.27
2023-08-28T05:55:18.388Z,82.27
2023-08-28T05:57:50.585Z,83.63
2023-08-28T06:00:23.413Z,83.63
2023-08-28T06:02:55.789Z,82.97
2023-08-28T06:05:28.097Z,81.85
2023-08-28T06:08:00.277Z,79.65
2023-08-28T06:10:35.353Z,78.22
2023-08-28T06:13:07.998Z,75.37
2023-08-28T06:15:39.943Z,73.07
2023-08-28T06:18:11.917Z,71.48
2023-08-28T06:20:44.529Z,68.71
2023-08-28T06:23:19.124Z,67.74
2023-08-28T06:25:51.595Z,66.97
2023-08-28T06:28:24.009Z,67.23
2023-08-28T06:30:56.370Z,64.64
2023-08-28T06:33:28.463Z,63.44
2023-08-28T06:36:01.096Z,61.95
2023-08-28T06:38:32.987Z,61.67
2023-08-28T06:41:05.333Z,61.52
2023-08-28T06:43:37.290Z,61.34
2023-08-28T06:46:09.264Z,61.55
2023-08-28T06:48:41.651Z,60.87
2023-08-28T06:51:14.233Z,59.90
2023-08-28T06:53:46.299Z,59.02
2023-08-28T06:56:18.263Z,58.65
2023-08-28T06:58:50.225Z,58.49
2023-08-28T07:01:23.826Z,56.89
2023-08-28T07:03:55.829Z,56.67
2023-08-28T07:06:27.866Z,56.59
2023-08-28T07:09:00.985Z,56.86
2023-08-28T07:11:33.124Z,57.82
2023-08-28T07:14:05.729Z,58.26
2023-08-28T07:16:37.893Z,57.44
2023-08-28T07:19:10.051Z,58.22
2023-08-28T07:21:42.005Z,57.57
2023-08-28T07:24:14.194Z,56.58
2023-08-28T07:26:46.449Z,55.84
2023-08-28T07:29:18.905Z,54.58
2023-08-28T07:31:50.951Z,53.42
2023-08-28T07:34:22.873Z,51.96
2023-08-28T07:36:55.096Z,51.80
2023-08-28T07:39:27.129Z,47.58
2023-08-28T07:42:00.570Z,47.70
2023-08-28T07:44:32.544Z,46.92
2023-08-28T07:47:04.723Z,46.62
2023-08-28T07:49:36.545Z,45.23
2023-08-28T07:52:08.962Z,43.74
2023-08-28T07:54:40.877Z,43.58
2023-08-28T07:57:13.346Z,43.42
2023-08-28T07:59:45.231Z,43.51
2023-08-28T08:02:17.341Z,43.97
2023-08-28T08:04:49.146Z,43.66
2023-08-28T08:07:21.226Z,43.15
2023-08-28T08:09:53.207Z,42.41
2023-08-28T08:12:28.583Z,41.95
2023-08-28T08:15:00.564Z,42.27
2023-08-28T08:17:32.703Z,42.17
2023-08-28T08:20:05.780Z,41.93
2023-08-28T08:22:38.258Z,42.29
2023-08-28T08:25:12.809Z,42.46
2023-08-28T08:27:47.145Z,42.17
2023-08-28T08:30:19.453Z,42.03
2023-08-28T08:32:51.576Z,41.42
2023-08-28T08:35:23.644Z,40.69
2023-08-28T08:37:55.610Z,40.16
2023-08-28T08:40:29.432Z,39.95
2023-08-28T08:43:03.533Z,39.74
2023-08-28T08:45:37.086Z,39.31
2023-08-28T08:48:10.538Z,38.93
2023-08-28T08:50:44.028Z,37.89
2023-08-28T08:53:19.100Z,38.31
2023-08-28T08:55:50.890Z,38.09
2023-08-28T08:58:23.149Z,37.75
2023-08-28T09:00:55.048Z,38.09
2023-08-28T09:03:27.115Z,37.74
2023-08-28T09:06:00.658Z,38.30
2023-08-28T09:08:32.703Z,38.16
2023-08-28T09:11:06.180Z,37.87
2023-08-28T09:13:38.386Z,36.96
2023-08-28T09:16:11.111Z,36.79
2023-08-28T09:18:43.927Z,36.78
2023-08-28T09:21:17.765Z,37.09
2023-08-28T09:23:52.763Z,36.80
2023-08-28T09:26:25.766Z,35.98
2023-08-28T09:29:05.806Z,35.61
2023-08-28T09:31:38.314Z,35.28
2023-08-28T09:34:10.555Z,35.40
2023-08-28T09:36:45.602Z,35.18
2023-08-28T09:39:18.044Z,34.64
2023-08-28T09:41:50.437Z,33.58
2023-08-28T09:44:22.445Z,33.59
2023-08-28T09:46:57.222Z,34.05
2023-08-28T09:49:29.205Z,34.24
2023-08-28T09:52:04.863Z,33.88
2023-08-28T09:54:36.805Z,33.90
2023-08-28T09:57:20.192Z,33.89
2023-08-28T09:59:52.485Z,34.07
2023-08-28T10:02:25.168Z,33.91
2023-08-28T10:04:57.280Z,33.42
2023-08-28T10:07:30.684Z,34.30
2023-08-28T10:10:04.275Z,34.37
2023-08-28T10:12:36.578Z,34.03
2023-08-28T10:15:10.381Z,33.80
2023-08-28T10:17:42.556Z,33.77
2023-08-28T10:20:14.999Z,33.60
2023-08-28T10:22:46.947Z,33.36
2023-08-28T10:25:20.508Z,33.12
2023-08-28T10:27:52.765Z,33.16
2023-08-28T10:30:25.373Z,33.56
2023-08-28T10:32:57.736Z,33.65
2023-08-28T10:35:29.873Z,33.69
2023-08-28T10:38:01.836Z,33.72
2023-08-28T10:40:34.713Z,33.43
2023-08-28T10:43:07.227Z,32.73
2023-08-28T10:45:40.225Z,32.80
2023-08-28T10:48:12.164Z,32.99
2023-08-28T10:50:44.166Z,32.87
2023-08-28T10:53:17.965Z,32.85
2023-08-28T10:55:56.069Z,32.47
2023-08-28T10:58:30.686Z,31.93
2023-08-28T11:01:16.925Z,32.19
2023-08-28T11:03:59.509Z,32.21
2023-08-28T11:06:43.948Z,32.53
2023-08-28T11:09:37.224Z,32.36
2023-08-28T11:12:32.011Z,32.85
2023-08-28T11:15:08.126Z,32.55
2023-08-28T11:17:40.414Z,32.07
2023-08-28T11:20:13.547Z,32.00
2023-08-28T11:22:48.237Z,31.92
2023-08-28T11:25:38.634Z,31.39
2023-08-28T11:28:24.114Z,31.42
2023-08-28T11:30:56.379Z,31.78
2023-08-28T11:33:28.818Z,32.22
2023-08-28T11:36:04.900Z,31.49
2023-08-28T11:38:37.066Z,31.48
2023-08-28T11:41:10.158Z,31.21
2023-08-28T11:43:43.036Z,31.55
2023-08-28T11:46:15.446Z,32.05
2023-08-28T11:48:49.901Z,31.96
2023-08-28T11:51:28.547Z,31.65
2023-08-28T11:54:01.415Z,31.99
2023-08-28T11:56:37.307Z,31.76
2023-08-28T11:59:09.302Z,31.94
2023-08-28T12:01:41.427Z,31.99
2023-08-28T12:04:13.655Z,32.48
2023-08-28T12:06:45.846Z,32.63
2023-08-28T12:09:18.024Z,32.85
2023-08-28T12:11:50.150Z,33.21
2023-08-28T12:14:24.139Z,33.18
2023-08-28T12:17:02.235Z,32.51
2023-08-28T12:19:36.199Z,32.57
2023-08-28T12:22:13.015Z,32.93
2023-08-28T12:24:45.833Z,32.94
2023-08-28T12:27:18.472Z,32.62
2023-08-28T12:29:50.537Z,32.07
2023-08-28T12:32:23.125Z,31.81
2023-08-28T12:34:55.248Z,31.90
2023-08-28T12:37:27.187Z,31.31
2023-08-28T12:39:59.631Z,30.86
2023-08-28T12:42:31.596Z,30.58
2023-08-28T12:45:05.100Z,30.77
2023-08-28T12:47:38.725Z,30.84
2023-08-28T12:50:12.417Z,31.04
2023-08-28T12:52:46.051Z,30.80
2023-08-28T12:55:18.340Z,30.45
2023-08-28T12:57:50.574Z,31.08
2023-08-28T13:00:25.344Z,31.38
2023-08-28T13:02:57.588Z,30.79
2023-08-28T13:05:29.942Z,30.36
2023-08-28T13:08:09.585Z,30.61
2023-08-28T13:10:45.458Z,30.78
2023-08-28T13:13:17.741Z,31.01
2023-08-28T13:15:50.139Z,30.96
2023-08-28T13:18:22.247Z,30.85
2023-08-28T13:20:54.989Z,30.79
2023-08-28T13:23:27.326Z,30.66
2023-08-28T13:25:59.467Z,31.12
2023-08-28T13:28:31.504Z,31.04
2023-08-28T13:31:09.993Z,30.98
2023-08-28T13:33:41.955Z,31.05
2023-08-28T13:36:13.921Z,31.30
2023-08-28T13:38:46.018Z,31.09
2023-08-28T13:41:19.839Z,30.94
2023-08-28T13:43:51.730Z,31.15
2023-08-28T13:46:23.770Z,31.47
2023-08-28T13:48:55.935Z,31.47
2023-08-28T13:51:28.146Z,31.30
2023-08-28T13:54:00.202Z,31.23
2023-08-28T13:56:32.242Z,31.14
2023-08-28T13:59:07.211Z,30.84
2023-08-28T14:01:39.918Z,31.03
2023-08-28T14:04:12.079Z,31.21
2023-08-28T14:06:43.964Z,30.67
2023-08-28T14:09:15.975Z,30.35
2023-08-28T14:11:48.173Z,30.44
2023-08-28T14:14:20.417Z,30.76
2023-08-28T14:16:52.491Z,31.05
2023-08-28T14:19:24.479Z,30.97
2023-08-28T14:21:56.448Z,31.16
2023-08-28T14:24:28.410Z,31.06
2023-08-28T14:27:02.005Z,30.96
2023-08-28T14:29:34.626Z,31.38
2023-08-28T14:32:07.247Z,31.37
2023-08-28T14:34:39.210Z,31.47
2023-08-28T14:37:11.341Z,31.62
2023-08-28T14:39:43.453Z,31.62
2023-08-28T14:42:15.386Z,31.31
2023-08-28T14:44:47.453Z,31.54
2023-08-28T14:47:19.448Z,31.56
2023-08-28T14:49:51.704Z,31.88
2023-08-28T14:52:23.661Z,31.53
2023-08-28T14:54:55.616Z,31.51
2023-08-28T14:57:27.716Z,31.52
2023-08-28T14:59:59.683Z,31.44
2023-08-28T15:02:32.086Z,31.62
2023-08-28T15:05:04.664Z,31.46
2023-08-28T15:07:37.030Z,31.40
2023-08-28T15:10:10.161Z,31.50
2023-08-28T15:12:42.241Z,31.56
2023-08-28T15:15:14.602Z,31.55
2023-08-28T15:17:46.558Z,31.78
2023-08-28T15:20:18.741Z,31.83
2023-08-28T15:22:51.071Z,32.12
2023-08-28T15:25:23.032Z,32.51
2023-08-28T15:27:55.101Z,32.36
2023-08-28T15:30:29.722Z,32.35
2023-08-28T15:33:01.905Z,32.71
2023-08-28T15:35:34.469Z,33.18
2023-08-28T15:38:07.131Z,33.20
2023-08-28T15:40:39.317Z,33.33
2023-08-28T15:43:11.471Z,33.66
2023-08-28T15:45:51.431Z,33.73
2023-08-28T15:48:23.681Z,34.25
2023-08-28T15:50:55.720Z,34.25
2023-08-28T15:53:27.716Z,34.40
2023-08-28T15:55:59.942Z,34.90
2023-08-28T15:58:32.743Z,34.89
2023-08-28T16:01:04.972Z,35.16
2023-08-28T16:03:37.320Z,35.36
2023-08-28T16:06:10.867Z,35.57
2023-08-28T16:08:43.212Z,36.14
2023-08-28T16:11:15.166Z,36.47
2023-08-28T16:13:47.563Z,36.44
2023-08-28T16:16:19.682Z,36.68
2023-08-28T16:18:51.919Z,36.69
2023-08-28T16:21:23.995Z,36.86
2023-08-28T16:23:55.978Z,36.79
2023-08-28T16:26:28.092Z,36.90
2023-08-28T16:29:00.087Z,37.16
2023-08-28T16:31:32.164Z,37.90
2023-08-28T16:34:05.053Z,37.85
2023-08-28T16:36:37.292Z,38.03
2023-08-28T16:39:09.327Z,37.86
2023-08-28T16:41:41.438Z,37.73
2023-08-28T16:44:13.570Z,37.92
2023-08-28T16:46:46.210Z,37.99
2023-08-28T16:49:18.262Z,38.37
2023-08-28T16:51:50.272Z,38.69
2023-08-28T16:54:22.168Z,38.48
2023-08-28T16:56:54.335Z,38.71
2023-08-28T16:59:26.525Z,38.74
2023-08-28T17:01:58.529Z,38.94
2023-08-28T17:04:30.545Z,39.05
2023-08-28T17:07:02.591Z,39.08
2023-08-28T17:09:34.607Z,39.04
2023-08-28T17:12:07.642Z,39.79
2023-08-28T17:14:39.554Z,39.93
2023-08-28T17:17:12.173Z,40.09
2023-08-28T17:19:44.588Z,40.15
2023-08-28T17:22:16.483Z,39.88
2023-08-28T17:24:48.762Z,39.95
2023-08-28T17:27:20.993Z,40.14
2023-08-28T17:29:53.045Z,39.77
2023-08-28T17:32:30.506Z,39.89
2023-08-28T17:35:02.556Z,40.59
2023-08-28T17:37:34.461Z,40.35
2023-08-28T17:40:09.288Z,39.72
2023-08-28T17:42:41.624Z,39.63
2023-08-28T17:45:14.002Z,39.92
2023-08-28T17:47:45.935Z,39.96
2023-08-28T17:50:19.322Z,39.49
2023-08-28T17:52:51.410Z,39.34
2023-08-28T17:55:23.662Z,39.57
2023-08-28T17:57:55.553Z,39.48
2023-08-28T18:00:27.610Z,40.32
2023-08-28T18:03:03.754Z,40.83
2023-08-28T18:05:54.258Z,40.69
2023-08-28T18:08:28.209Z,40.33
2023-08-28T18:11:00.173Z,40.09
2023-08-28T18:13:32.129Z,40.35
2023-08-28T18:16:14.512Z,41.01
2023-08-28T18:18:47.019Z,41.30
2023-08-28T18:21:19.050Z,40.85
2023-08-28T18:23:52.641Z,41.15
2023-08-28T18:26:24.927Z,41.38
2023-08-28T18:28:57.731Z,42.11
2023-08-28T18:31:30.681Z,41.95
2023-08-28T18:34:02.797Z,42.17
2023-08-28T18:36:34.956Z,42.75
2023-08-28T18:39:07.153Z,42.61
2023-08-28T18:41:39.877Z,42.61
2023-08-28T18:44:12.028Z,42.71
2023-08-28T18:46:44.034Z,42.93
2023-08-28T18:49:16.098Z,42.83
2023-08-28T18:51:49.349Z,43.06
2023-08-28T18:54:22.115Z,43.69
2023-08-28T18:56:54.042Z,44.40
2023-08-28T18:59:26.176Z,44.36
2023-08-28T19:01:58.518Z,44.47
2023-08-28T19:04:30.412Z,44.64
2023-08-28T19:07:02.235Z,44.46
2023-08-28T19:09:36.241Z,44.71
2023-08-28T19:12:09.621Z,45.37
2023-08-28T19:14:42.201Z,45.29
2023-08-28T19:17:14.663Z,45.21
2023-08-28T19:19:46.761Z,45.03
2023-08-28T19:22:18.967Z,45.83
2023-08-28T19:24:51.484Z,45.80
2023-08-28T19:27:23.736Z,45.46
2023-08-28T19:29:56.422Z,45.72
2023-08-28T19:32:38.318Z,45.85
2023-08-28T19:35:13.563Z,46.92
2023-08-28T19:37:46.728Z,47.29
2023-08-28T19:40:18.681Z,46.52
2023-08-28T19:42:51.055Z,47.10
2023-08-28T19:45:23.539Z,47.35
2023-08-28T19:47:55.645Z,48.24
2023-08-28T19:50:28.020Z,48.35
2023-08-28T19:52:59.968Z,48.49
2023-08-28T19:55:32.237Z,48.65
2023-08-28T19:58:04.786Z,49.49
2023-08-28T20:00:37.730Z,49.85
2023-08-28T20:03:10.044Z,50.82
2023-08-28T20:05:42.165Z,50.78
2023-08-28T20:08:14.413Z,51.01
2023-08-28T20:10:46.446Z,50.73
2023-08-28T20:13:18.393Z,50.84
2023-08-28T20:15:52.633Z,50.37
2023-08-28T20:18:24.944Z,50.28
2023-08-28T20:20:56.956Z,51.02
2023-08-28T20:23:29.975Z,51.57
2023-08-28T20:26:04.171Z,51.66
2023-08-28T20:28:37.449Z,52.27
2023-08-28T20:31:09.594Z,52.07
2023-08-28T20:33:41.624Z,51.90
2023-08-28T20:36:13.538Z,52.01
2023-08-28T20:38:45.522Z,52.26
2023-08-28T20:41:18.502Z,52.67
2023-08-28T20:43:50.902Z,53.34
2023-08-28T20:46:23.762Z,53.36
2023-08-28T20:48:55.710Z,53.66
2023-08-28T20:51:28.323Z,53.87
2023-08-28T20:54:00.582Z,54.11
2023-08-28T20:56:32.704Z,55.41
2023-08-28T20:59:04.565Z,55.34
2023-08-28T21:01:36.689Z,55.57
2023-08-28T21:04:09.157Z,55.65
2023-08-28T21:06:41.092Z,55.66
2023-08-28T21:09:13.006Z,54.91
2023-08-28T21:11:45.572Z,53.92
2023-08-28T21:14:17.677Z,53.45
2023-08-28T21:16:50.090Z,53.70
2023-08-28T21:19:27.598Z,53.06
2023-08-28T21:22:00.154Z,53.04
2023-08-28T21:24:31.984Z,52.60
2023-08-28T21:27:04.502Z,51.93
2023-08-28T21:29:37.443Z,52.84
2023-08-28T21:32:10.006Z,53.09
2023-08-28T21:34:41.855Z,52.56
2023-08-28T21:37:13.763Z,52.55
2023-08-28T21:39:45.969Z,52.02
2023-08-28T21:42:17.817Z,53.67
2023-08-28T21:44:49.841Z,52.33
2023-08-28T21:47:21.807Z,52.82
2023-08-28T21:50:14.364Z,53.77
2023-08-28T21:53:05.718Z,54.05
2023-08-28T21:55:56.069Z,52.58
2023-08-28T21:58:46.463Z,53.62
2023-08-28T22:01:37.502Z,54.26
2023-08-28T22:04:27.651Z,54.72
2023-08-28T22:07:18.653Z,53.15
2023-08-28T22:10:08.473Z,52.80
2023-08-28T22:12:52.290Z,52.35
2023-08-28T22:15:33.228Z,51.93
2023-08-28T22:18:06.278Z,52.24
2023-08-28T22:20:43.276Z,52.17
2023-08-28T22:23:15.564Z,52.46
2023-08-28T22:25:47.595Z,53.32
2023-08-28T22:28:19.593Z,53.79
2023-08-28T22:30:51.614Z,54.91
2023-08-28T22:33:23.698Z,54.74
2023-08-28T22:35:55.667Z,55.05
2023-08-28T22:38:27.595Z,55.94
2023-08-28T22:40:59.751Z,56.22
2023-08-28T22:43:31.698Z,56.78
2023-08-28T22:46:03.690Z,57.20
2023-08-28T22:48:37.142Z,57.70
2023-08-28T22:51:10.218Z,59.26
2023-08-28T22:53:42.206Z,60.21
2023-08-28T22:56:14.911Z,61.53
2023-08-28T22:58:47.057Z,60.32
2023-08-28T23:01:18.938Z,61.33
2023-08-28T23:03:50.929Z,62.36
2023-08-28T23:06:23.698Z,63.41
2023-08-28T23:08:55.605Z,62.53
2023-08-28T23:11:27.425Z,61.56
2023-08-28T23:13:59.329Z,63.00
2023-08-28T23:16:31.204Z,64.09
2023-08-28T23:19:03.441Z,63.46
2023-08-28T23:21:35.336Z,63.86
2023-08-28T23:24:09.713Z,63.97
2023-08-28T23:26:41.727Z,64.23
2023-08-28T23:29:15.574Z,64.97
2023-08-28T23:31:47.616Z,66.15
2023-08-28T23:34:19.543Z,65.85
2023-08-28T23:36:52.476Z,64.78
2023-08-28T23:39:24.458Z,65.65
2023-08-28T23:41:56.344Z,65.54
2023-08-28T23:44:28.280Z,65.89
2023-08-28T23:47:00.158Z,65.52
2023-08-28T23:49:32.154Z,66.57
2023-08-28T23:52:04.142Z,67.13
2023-08-28T23:54:36.120Z,69.80
2023-08-28T23:57:08.648Z,70.09
2023-08-28T23:59:40.972Z,69.58
